Time;durP1;ratioP1;P1;durP2;ratioP2;P2;SDS_P1;SDS_P2;PMS_P1;PMS_P2;Temp;Humidity;BMP_temperature;BMP_pressure;BME280_temperature;BME280_humidity;BME280_pressure;Samples;Min_cycle;Max_cycle;Signal;HPM_P1;HPM_P2
2023/07/02 04:31:12;;;;;;;19.00;7.60;;;15.40;74.00;;;;;;5519355;23;20149;-80
2023/07/02 04:33:37;;;;;;;20.08;8.70;;;15.30;74.20;;;;;;4908630;29;20044;-80
2023/07/02 04:36:04;;;;;;;21.13;7.13;;;15.30;74.10;;;;;;4898124;29;20069;-80
2023/07/02 04:38:29;;;;;;;18.55;7.95;;;15.30;74.00;;;;;;4879959;29;20279;-80
2023/07/02 04:41:01;;;;;;;18.10;7.85;;;15.30;74.20;;;;;;4897473;29;20032;-80
2023/07/02 04:43:29;;;;;;;20.65;7.82;;;15.40;74.00;;;;;;4897654;29;20099;-81
2023/07/02 04:45:55;;;;;;;24.42;8.05;;;15.40;74.30;;;;;;4897621;29;20028;-80
2023/07/02 04:48:21;;;;;;;19.63;8.05;;;15.40;74.20;;;;;;4880684;29;20041;-80
2023/07/02 04:50:47;;;;;;;22.70;8.43;;;15.40;74.10;;;;;;4897492;29;20120;-80
2023/07/02 04:53:12;;;;;;;23.10;8.70;;;15.40;74.40;;;;;;4896529;29;20051;-80
2023/07/02 04:55:38;;;;;;;19.42;8.43;;;15.40;74.50;;;;;;4916351;29;20028;-80
2023/07/02 04:58:03;;;;;;;22.65;8.77;;;15.40;74.70;;;;;;4908244;29;20065;-80
2023/07/02 05:00:29;;;;;;;20.15;7.68;;;15.30;74.50;;;;;;4886757;29;20028;-81
2023/07/02 05:02:55;;;;;;;22.60;8.55;;;15.40;74.70;;;;;;4891975;29;20036;-81
2023/07/02 05:05:20;;;;;;;18.55;8.00;;;15.40;74.70;;;;;;4896303;29;20024;-82
2023/07/02 05:07:46;;;;;;;21.92;8.07;;;15.40;74.80;;;;;;4926426;29;20833;-80
2023/07/02 05:10:12;;;;;;;28.35;9.18;;;15.40;74.80;;;;;;4938698;29;20027;-79
2023/07/02 05:12:37;;;;;;;22.77;8.35;;;15.40;75.10;;;;;;4903649;29;20123;-80
2023/07/02 05:15:03;;;;;;;21.88;9.77;;;15.40;75.10;;;;;;4884322;29;20024;-80
2023/07/02 05:17:29;;;;;;;21.10;8.55;;;15.40;75.40;;;;;;4900038;29;20392;-80
2023/07/02 05:19:55;;;;;;;21.73;8.65;;;15.40;75.50;;;;;;4911976;29;20068;-80
2023/07/02 05:22:21;;;;;;;20.23;8.63;;;15.50;75.40;;;;;;4916198;29;20475;-81
2023/07/02 05:24:46;;;;;;;25.20;9.20;;;15.50;75.50;;;;;;4900691;29;20888;-80
2023/07/02 05:27:12;;;;;;;21.90;8.07;;;15.50;75.90;;;;;;4900886;29;20059;-80
2023/07/02 05:29:39;;;;;;;23.30;9.05;;;15.50;75.70;;;;;;4900400;29;20040;-80
2023/07/02 05:32:05;;;;;;;20.42;7.82;;;15.50;76.00;;;;;;4912532;29;20395;-81
2023/07/02 05:34:31;;;;;;;22.83;8.70;;;15.60;76.00;;;;;;4911848;29;20148;-80
2023/07/02 05:36:56;;;;;;;24.08;8.77;;;15.60;75.90;;;;;;4904245;29;20036;-81
2023/07/02 05:39:22;;;;;;;21.30;8.35;;;15.70;75.70;;;;;;4901417;29;20752;-80
2023/07/02 05:41:47;;;;;;;26.08;9.18;;;15.80;75.80;;;;;;4903830;29;20102;-80
2023/07/02 05:44:13;;;;;;;22.95;8.45;;;15.80;76.00;;;;;;4900742;29;20029;-80
2023/07/02 05:46:39;;;;;;;23.60;8.77;;;15.80;75.70;;;;;;4900339;29;20084;-80
2023/07/02 05:49:05;;;;;;;19.85;8.15;;;15.80;76.30;;;;;;4899522;29;20044;-80
2023/07/02 05:51:31;;;;;;;23.45;9.15;;;15.80;76.20;;;;;;4900189;29;20487;-80
2023/07/02 05:53:57;;;;;;;24.60;8.63;;;15.90;76.30;;;;;;4899658;29;20036;-80
2023/07/02 05:56:23;;;;;;;22.33;9.23;;;15.90;76.30;;;;;;4900468;29;20028;-80
2023/07/02 05:58:49;;;;;;;19.95;7.97;;;15.90;76.10;;;;;;4899882;29;20024;-80
2023/07/02 06:01:15;;;;;;;26.15;9.50;;;16.00;76.10;;;;;;4892584;29;20543;-81
2023/07/02 06:03:42;;;;;;;25.15;9.60;;;16.10;76.00;;;;;;4900024;29;20122;-80
2023/07/02 06:06:08;;;;;;;25.55;9.05;;;16.10;76.00;;;;;;4896658;29;20124;-80
2023/07/02 06:08:34;;;;;;;24.25;8.75;;;16.20;75.90;;;;;;4919379;29;20467;-80
2023/07/02 06:11:00;;;;;;;22.40;9.38;;;16.20;75.90;;;;;;4914372;29;20075;-80
2023/07/02 06:13:25;;;;;;;23.10;9.02;;;16.30;75.80;;;;;;4899498;29;20028;-81
2023/07/02 06:15:51;;;;;;;24.50;9.70;;;16.30;75.90;;;;;;4917391;29;20032;-82
2023/07/02 06:18:17;;;;;;;26.58;9.27;;;16.30;76.00;;;;;;4915598;29;20032;-82
2023/07/02 06:20:43;;;;;;;27.20;9.20;;;16.30;76.30;;;;;;4901782;29;20020;-81
2023/07/02 06:23:09;;;;;;;24.50;8.65;;;16.40;75.70;;;;;;4915114;29;20028;-80
2023/07/02 06:25:34;;;;;;;21.00;8.00;;;16.50;76.00;;;;;;4918529;29;20059;-81
2023/07/02 06:28:00;;;;;;;27.35;8.45;;;16.50;75.70;;;;;;4915099;29;20028;-81
2023/07/02 06:30:26;;;;;;;25.15;9.05;;;16.60;75.60;;;;;;4918484;29;20028;-81
2023/07/02 06:32:52;;;;;;;28.52;8.65;;;16.70;75.40;;;;;;4917198;29;20028;-81
2023/07/02 06:35:18;;;;;;;27.13;8.75;;;16.70;75.20;;;;;;4898018;29;20033;-76
2023/07/02 06:37:43;;;;;;;21.00;8.40;;;16.70;75.10;;;;;;4903491;29;20069;-77
2023/07/02 06:40:10;;;;;;;25.13;8.45;;;16.80;75.00;;;;;;4900109;29;20390;-75
2023/07/02 06:42:36;;;;;;;25.67;8.45;;;16.80;75.00;;;;;;4899492;29;20036;-77
2023/07/02 06:45:02;;;;;;;26.58;10.38;;;16.90;75.00;;;;;;4918155;29;20035;-79
2023/07/02 06:47:28;;;;;;;22.52;8.55;;;17.00;74.90;;;;;;4889203;29;20041;-81
2023/07/02 06:49:53;;;;;;;28.23;7.85;;;17.00;74.50;;;;;;4899700;29;20170;-79
2023/07/02 06:52:19;;;;;;;24.30;8.30;;;17.10;74.30;;;;;;4884180;29;20036;-79
2023/07/02 06:54:46;;;;;;;21.25;8.15;;;17.10;74.20;;;;;;4900451;29;20056;-81
2023/07/02 06:57:12;;;;;;;20.95;7.85;;;17.10;74.10;;;;;;4917980;29;20036;-84
2023/07/02 06:59:38;;;;;;;21.13;7.88;;;17.20;74.10;;;;;;4918367;29;20020;-82
2023/07/02 07:02:04;;;;;;;31.83;8.07;;;17.20;73.90;;;;;;4915618;29;20035;-82
2023/07/02 07:04:29;;;;;;;20.83;7.50;;;17.30;73.70;;;;;;4921157;29;20032;-80
2023/07/02 07:06:55;;;;;;;23.88;8.50;;;17.30;73.40;;;;;;4909861;29;20796;-82
2023/07/02 07:09:21;;;;;;;23.58;7.50;;;17.40;73.40;;;;;;4920405;29;20032;-84
2023/07/02 07:11:47;;;;;;;19.95;8.25;;;17.50;73.10;;;;;;4911492;29;20067;-80
2023/07/02 07:14:13;;;;;;;20.15;7.72;;;17.70;72.80;;;;;;4902690;29;20032;-78
2023/07/02 07:16:38;;;;;;;20.27;7.97;;;17.70;73.10;;;;;;4902904;29;20041;-80
2023/07/02 07:19:04;;;;;;;19.90;7.85;;;17.80;72.40;;;;;;4906292;29;20047;-80
2023/07/02 07:21:30;;;;;;;20.38;7.55;;;17.90;72.00;;;;;;4904537;29;20032;-77
2023/07/02 07:23:56;;;;;;;24.27;7.80;;;18.00;71.40;;;;;;4921229;29;20032;-78
2023/07/02 07:26:22;;;;;;;19.23;7.18;;;18.20;71.20;;;;;;4919501;29;20028;-80
2023/07/02 07:28:47;;;;;;;20.05;6.13;;;18.30;70.60;;;;;;4902274;29;20165;-80
2023/07/02 07:31:13;;;;;;;26.70;7.63;;;18.40;69.80;;;;;;4904682;29;20056;-78
2023/07/02 07:33:38;;;;;;;22.92;7.25;;;18.80;68.80;;;;;;4900793;29;20033;-84
2023/07/02 07:36:04;;;;;;;27.55;7.15;;;18.90;68.50;;;;;;4902207;29;20032;-82
2023/07/02 07:38:30;;;;;;;26.13;7.53;;;19.00;68.20;;;;;;4885506;29;20531;-80
2023/07/02 07:40:55;;;;;;;21.23;7.18;;;19.40;66.60;;;;;;4902461;29;20029;-83
2023/07/02 07:43:21;;;;;;;17.77;7.28;;;19.80;66.60;;;;;;4902136;29;20029;-82
2023/07/02 07:45:47;;;;;;;20.23;6.63;;;20.50;63.80;;;;;;4914130;29;20044;-80
2023/07/02 07:48:13;;;;;;;21.70;6.63;;;21.10;61.20;;;;;;4903862;29;20035;-81
2023/07/02 07:50:38;;;;;;;17.27;6.10;;;21.50;60.00;;;;;;4912613;29;20041;-80
2023/07/02 07:53:04;;;;;;;20.13;6.82;;;22.20;58.40;;;;;;4885326;29;20103;-78
2023/07/02 07:55:29;;;;;;;20.05;6.75;;;24.30;54.00;;;;;;4901961;29;20044;-79
2023/07/02 07:57:55;;;;;;;16.70;6.78;;;25.40;49.60;;;;;;4891760;29;20032;-77
2023/07/02 08:00:21;;;;;;;22.13;7.40;;;25.10;47.90;;;;;;4910425;29;20440;-78
2023/07/02 08:02:47;;;;;;;16.88;7.35;;;26.80;46.00;;;;;;4916764;29;20442;-79
2023/07/02 08:05:12;;;;;;;15.10;7.20;;;28.50;41.90;;;;;;4920772;29;20032;-79
2023/07/02 08:07:40;;;;;;;16.98;7.65;;;30.30;38.80;;;;;;4916929;29;20064;-77
2023/07/02 08:10:07;;;;;;;16.40;6.93;;;31.80;37.50;;;;;;4916039;29;20028;-78
2023/07/02 08:12:33;;;;;;;18.65;6.90;;;30.20;37.50;;;;;;4920395;29;20222;-80
2023/07/02 08:14:59;;;;;;;17.60;6.85;;;28.20;39.90;;;;;;4899409;29;20510;-79
2023/07/02 08:17:24;;;;;;;21.73;6.82;;;26.40;43.60;;;;;;4884769;29;20050;-79
2023/07/02 08:19:50;;;;;;;14.80;5.90;;;25.30;44.60;;;;;;4901352;29;20096;-79
2023/07/02 08:22:16;;;;;;;15.93;5.18;;;24.40;47.20;;;;;;4885053;29;20032;-80
2023/07/02 08:24:41;;;;;;;18.42;6.35;;;25.00;47.20;;;;;;4901513;29;20029;-77
2023/07/02 08:27:07;;;;;;;15.27;6.32;;;25.00;46.50;;;;;;4901438;29;20040;-78
2023/07/02 08:29:33;;;;;;;14.05;6.40;;;24.30;48.10;;;;;;4901277;29;20044;-79
2023/07/02 08:31:58;;;;;;;15.02;5.50;;;26.80;44.30;;;;;;4906778;29;20084;-78
2023/07/02 08:34:24;;;;;;;15.38;5.68;;;27.10;41.90;;;;;;4901423;29;20029;-79
2023/07/02 08:36:51;;;;;;;16.75;6.57;;;27.50;41.70;;;;;;4903056;29;20033;-82
2023/07/02 08:39:17;;;;;;;17.20;5.88;;;29.50;38.40;;;;;;4902894;29;20028;-85
2023/07/02 08:41:46;;;;;;;19.95;6.97;;;29.90;35.70;;;;;;4901079;29;20120;-83
2023/07/02 08:44:13;;;;;;;19.48;6.35;;;28.70;37.70;;;;;;4910489;29;20040;-81
2023/07/02 08:46:41;;;;;;;16.05;6.53;;;27.50;40.70;;;;;;4901401;29;20052;-81
2023/07/02 08:49:10;;;;;;;18.75;6.65;;;26.10;41.90;;;;;;4900557;29;20032;-81
2023/07/02 08:51:46;;;;;;;17.42;6.70;;;26.10;42.30;;;;;;4900879;29;20066;-89
2023/07/02 08:54:12;;;;;;;15.43;6.75;;;28.00;40.50;;;;;;4902216;29;20424;-78
2023/07/02 08:56:38;;;;;;;16.80;6.70;;;29.70;38.00;;;;;;4909166;29;20094;-81
2023/07/02 08:59:07;;;;;;;16.55;6.80;;;30.50;35.60;;;;;;4914372;29;20047;-81
2023/07/02 09:01:51;;;;;;;19.23;7.63;;;29.50;36.50;;;;;;4915134;29;20032;-84
2023/07/02 09:04:22;;;;;;;19.42;7.40;;;28.70;37.60;;;;;;4903288;29;20025;-81
2023/07/02 09:06:49;;;;;;;14.40;6.53;;;30.00;36.80;;;;;;4899681;29;20021;-81
2023/07/02 09:09:15;;;;;;;15.90;6.75;;;30.50;34.70;;;;;;4916061;29;20046;-82
2023/07/02 09:11:50;;;;;;;16.00;6.97;;;30.00;33.20;;;;;;4903835;29;20072;-82
2023/07/02 09:14:26;;;;;;;15.25;6.57;;;29.80;35.00;;;;;;4911027;29;20030;-83
2023/07/02 09:17:02;;;;;;;20.08;7.28;;;30.80;35.00;;;;;;4882895;29;20028;-83
2023/07/02 09:19:28;;;;;;;13.95;6.35;;;32.10;33.50;;;;;;4899234;29;20040;-82
2023/07/02 09:21:55;;;;;;;16.30;7.53;;;33.00;31.70;;;;;;4891076;29;20028;-82
2023/07/02 09:24:23;;;;;;;13.23;7.05;;;33.40;31.20;;;;;;4909035;29;20068;-82
2023/07/02 09:26:54;;;;;;;13.65;6.68;;;33.70;28.40;;;;;;4900559;29;20103;-82
2023/07/02 09:29:28;;;;;;;;;;;33.90;30.00;;;;;;4898902;29;20148;-82
2023/07/02 09:31:55;;;;;;;16.00;6.57;;;32.40;30.60;;;;;;4899059;29;19922;-82
2023/07/02 09:34:30;;;;;;;18.60;6.38;;;31.10;32.50;;;;;;4894444;29;20029;-82
2023/07/02 09:37:00;;;;;;;15.23;6.40;;;29.90;34.20;;;;;;4888697;29;20186;-82
2023/07/02 09:39:28;;;;;;;13.57;6.05;;;29.00;34.70;;;;;;4909839;29;20114;-83
2023/07/02 09:41:56;;;;;;;16.15;6.53;;;28.70;35.60;;;;;;4900366;29;20043;-82
2023/07/02 09:44:26;;;;;;;14.07;6.07;;;29.50;35.70;;;;;;4883317;29;20119;-82
2023/07/02 09:47:08;;;;;;;11.30;6.05;;;30.80;34.10;;;;;;4896161;29;20063;-82
2023/07/02 09:49:50;;;;;;;15.00;5.30;;;32.10;32.00;;;;;;4915503;29;20036;-81
2023/07/02 09:52:17;;;;;;;15.10;5.22;;;32.30;30.90;;;;;;4910958;29;20119;-81
2023/07/02 09:54:42;;;;;;;15.45;5.15;;;30.80;31.70;;;;;;4906773;29;20078;-82
2023/07/02 09:57:08;;;;;;;12.48;5.47;;;29.40;33.70;;;;;;4882838;29;20033;-82
2023/07/02 09:59:34;;;;;;;13.70;4.60;;;28.70;36.30;;;;;;4903126;29;20047;-79
2023/07/02 10:02:00;;;;;;;14.23;5.35;;;28.30;36.40;;;;;;4903045;29;20493;-80
2023/07/02 10:04:26;;;;;;;13.38;4.40;;;27.90;36.70;;;;;;4912429;29;20035;-83
2023/07/02 10:06:54;;;;;;;17.88;5.13;;;27.80;36.30;;;;;;4900936;29;20095;-82
2023/07/02 10:09:21;;;;;;;13.85;5.32;;;27.70;36.40;;;;;;4897038;29;20033;-78
2023/07/02 10:11:47;;;;;;;12.55;4.82;;;28.90;37.00;;;;;;4909349;29;20522;-78
2023/07/02 10:14:14;;;;;;;12.10;4.70;;;29.10;35.00;;;;;;4910558;29;21152;-78
2023/07/02 10:16:53;;;;;;;13.52;4.65;;;29.30;35.70;;;;;;4914269;29;20039;-79
2023/07/02 10:19:19;;;;;;;16.23;5.05;;;29.10;34.80;;;;;;4915061;29;20509;-81
2023/07/02 10:21:51;;;;;;;16.27;5.07;;;29.30;35.20;;;;;;4917855;29;20487;-77
2023/07/02 10:24:18;;;;;;;12.85;4.97;;;28.70;35.20;;;;;;4893130;29;20036;-78
2023/07/02 10:26:53;;;;;;;14.00;5.20;;;28.20;37.20;;;;;;4919907;29;20054;-76
2023/07/02 10:29:19;;;;;;;16.38;4.70;;;27.80;37.70;;;;;;4905211;29;20034;-81
2023/07/02 10:31:53;;;;;;;14.23;4.65;;;28.10;37.30;;;;;;4902940;29;20052;-80
2023/07/02 10:34:35;;;;;;;14.35;5.00;;;28.60;37.50;;;;;;4922624;29;20542;-77
2023/07/02 10:37:01;;;;;;;;;;;29.20;37.20;;;;;;4919523;29;20024;-79
2023/07/02 10:39:29;;;;;;;12.05;4.22;;;29.60;37.10;;;;;;4899634;29;20443;-80
2023/07/02 10:42:09;;;;;;;12.15;4.35;;;29.90;35.30;;;;;;4904152;29;20032;-79
2023/07/02 10:44:47;;;;;;;12.35;4.38;;;29.10;33.60;;;;;;4904372;29;20535;-78
2023/07/02 10:47:13;;;;;;;11.13;4.40;;;28.70;33.80;;;;;;4903241;29;20064;-77
2023/07/02 10:49:39;;;;;;;9.45;3.78;;;28.30;35.50;;;;;;4903391;29;20036;-82
2023/07/02 10:52:05;;;;;;;14.45;4.18;;;27.60;34.50;;;;;;4884036;29;20040;-78
2023/07/02 10:54:48;;;;;;;15.73;4.50;;;27.60;36.70;;;;;;4898284;29;20035;-81
2023/07/02 10:57:20;;;;;;;14.60;4.95;;;27.60;37.70;;;;;;4905154;29;20024;-81
2023/07/02 10:59:46;;;;;;;11.70;3.92;;;27.60;38.00;;;;;;4900852;29;20036;-79
2023/07/02 11:02:17;;;;;;;12.68;4.28;;;27.90;37.50;;;;;;4905192;29;20036;-84
2023/07/02 11:04:42;;;;;;;13.07;4.55;;;27.90;37.00;;;;;;4920195;29;20490;-88
2023/07/02 11:07:10;;;;;;;11.27;4.20;;;27.90;36.50;;;;;;4903385;29;20123;-91
2023/07/02 11:09:36;;;;;;;11.90;4.20;;;27.90;37.30;;;;;;4906610;29;20387;-85
2023/07/02 11:12:02;;;;;;;12.60;4.22;;;27.80;37.50;;;;;;4906098;29;20036;-91
2023/07/02 11:14:34;;;;;;;10.73;4.28;;;27.90;36.70;;;;;;4896246;29;20043;-83
2023/07/02 11:17:05;;;;;;;11.60;4.05;;;27.80;35.90;;;;;;4901455;29;20017;-89
2023/07/02 11:19:35;;;;;;;13.95;4.07;;;27.60;36.30;;;;;;4905123;29;20040;-89
2023/07/02 11:22:02;;;;;;;11.18;4.75;;;27.40;37.30;;;;;;4901665;29;20036;-84
2023/07/02 11:24:35;;;;;;;11.82;4.40;;;27.30;38.20;;;;;;4918878;29;20035;-89
2023/07/02 11:27:03;;;;;;;17.98;6.10;;;27.30;37.80;;;;;;4905239;29;20060;-82
2023/07/02 11:29:29;;;;;;;11.07;4.15;;;27.20;37.30;;;;;;4889009;29;20100;-89
2023/07/02 11:32:04;;;;;;;10.20;4.03;;;26.90;37.10;;;;;;4910286;29;20040;-86
2023/07/02 11:34:29;;;;;;;12.18;4.10;;;26.70;37.90;;;;;;4922797;29;20506;-87
2023/07/02 11:37:09;;;;;;;12.65;4.10;;;26.30;38.50;;;;;;4921976;29;20028;-89
2023/07/02 11:39:42;;;;;;;12.57;3.92;;;25.90;39.20;;;;;;4904542;29;20042;-88
2023/07/02 11:42:11;;;;;;;10.80;3.60;;;25.80;40.50;;;;;;4900954;29;20032;-86
2023/07/02 11:44:37;;;;;;;10.35;3.88;;;25.70;40.60;;;;;;4886053;29;20039;-80
2023/07/02 11:47:02;;;;;;;11.88;4.20;;;25.80;41.20;;;;;;4901781;29;20029;-76
2023/07/02 11:49:29;;;;;;;13.68;4.35;;;25.90;41.70;;;;;;4901915;29;20507;-79
2023/07/02 11:51:54;;;;;;;13.45;4.00;;;26.10;40.90;;;;;;4885614;29;20032;-77
2023/07/02 11:54:20;;;;;;;10.90;4.50;;;26.30;41.00;;;;;;4899838;29;20095;-76
2023/07/02 11:56:46;;;;;;;13.95;4.03;;;26.30;41.70;;;;;;4893012;29;20087;-83
2023/07/02 11:59:11;;;;;;;15.05;4.60;;;26.50;41.10;;;;;;4899903;29;20032;-78
2023/07/02 12:01:37;;;;;;;13.85;4.05;;;26.40;40.00;;;;;;4911818;29;20043;-78
2023/07/02 12:04:03;;;;;;;9.57;4.25;;;26.30;40.50;;;;;;4905982;29;20020;-79
2023/07/02 12:06:29;;;;;;;11.57;4.22;;;26.10;40.90;;;;;;4888177;29;20032;-79
2023/07/02 12:08:54;;;;;;;12.55;4.53;;;25.90;41.00;;;;;;4890569;29;20035;-78
2023/07/02 12:11:20;;;;;;;12.43;3.95;;;25.70;42.10;;;;;;4908502;29;20053;-78
2023/07/02 12:13:46;;;;;;;10.27;3.72;;;25.50;42.10;;;;;;4904874;29;20040;-78
2023/07/02 12:16:11;;;;;;;12.10;4.65;;;25.40;42.30;;;;;;4916712;29;20050;-78
2023/07/02 12:18:37;;;;;;;11.73;3.80;;;25.30;42.30;;;;;;4909872;29;20036;-78
2023/07/02 12:21:03;;;;;;;12.13;3.97;;;25.50;42.30;;;;;;4898128;29;20092;-78
2023/07/02 12:23:28;;;;;;;9.73;3.58;;;25.50;40.90;;;;;;4903187;29;20148;-78
2023/07/02 12:25:54;;;;;;;13.95;4.45;;;25.60;41.80;;;;;;4916294;29;20061;-79
2023/07/02 12:28:22;;;;;;;12.48;4.18;;;25.60;41.70;;;;;;4902221;29;20043;-83
2023/07/02 12:30:49;;;;;;;12.20;3.88;;;25.40;42.30;;;;;;4899429;29;20119;-78
2023/07/02 12:33:14;;;;;;;14.13;4.20;;;25.30;41.70;;;;;;4900273;29;20082;-79
2023/07/02 12:35:40;;;;;;;13.40;4.00;;;25.20;42.50;;;;;;4914418;29;20028;-77
2023/07/02 12:38:08;;;;;;;15.73;4.68;;;25.10;42.60;;;;;;4899016;29;20104;-79
2023/07/02 12:40:34;;;;;;;10.02;4.13;;;25.10;44.00;;;;;;4912046;29;20108;-82
2023/07/02 12:42:59;;;;;;;11.02;3.75;;;25.20;43.90;;;;;;4918173;29;20101;-78
2023/07/02 12:45:25;;;;;;;11.35;4.18;;;25.20;43.80;;;;;;4891926;29;20885;-80
2023/07/02 12:47:51;;;;;;;11.15;3.83;;;25.20;42.40;;;;;;4919052;29;20111;-78
2023/07/02 12:50:16;;;;;;;10.77;4.63;;;25.20;43.90;;;;;;4904270;29;20044;-78
2023/07/02 12:52:42;;;;;;;9.23;3.40;;;25.20;43.90;;;;;;4917506;29;20406;-78
2023/07/02 12:55:09;;;;;;;11.60;3.50;;;25.20;44.00;;;;;;4919117;29;20585;-77
2023/07/02 12:57:35;;;;;;;11.45;3.83;;;25.30;43.30;;;;;;4916720;29;21173;-77
2023/07/02 13:00:00;;;;;;;12.40;4.00;;;25.20;42.90;;;;;;4900247;29;20033;-78
2023/07/02 13:02:26;;;;;;;11.55;3.90;;;25.30;43.60;;;;;;4908686;29;20549;-78
2023/07/02 13:04:52;;;;;;;10.43;3.70;;;25.60;43.20;;;;;;4894832;29;20095;-78
2023/07/02 13:07:18;;;;;;;9.63;3.78;;;25.70;44.00;;;;;;4906314;29;20031;-78
2023/07/02 13:09:44;;;;;;;11.93;4.10;;;25.80;43.30;;;;;;4920267;29;20047;-78
2023/07/02 13:12:13;;;;;;;11.75;3.85;;;25.80;42.80;;;;;;4921201;29;20411;-78
2023/07/02 13:14:38;;;;;;;12.90;4.05;;;25.70;43.10;;;;;;4913013;29;20036;-78
2023/07/02 13:17:05;;;;;;;12.73;4.20;;;25.60;43.30;;;;;;4902854;29;20028;-78
2023/07/02 13:19:31;;;;;;;11.57;3.63;;;25.70;42.70;;;;;;4890547;29;20039;-78
2023/07/02 13:21:56;;;;;;;14.02;4.47;;;25.80;42.80;;;;;;4916213;29;20057;-78
2023/07/02 13:24:22;;;;;;;10.95;4.10;;;25.90;42.60;;;;;;4918794;29;20482;-78
2023/07/02 13:26:48;;;;;;;11.60;3.97;;;26.00;43.10;;;;;;4901830;29;20550;-78
2023/07/02 13:29:14;;;;;;;8.88;3.97;;;25.90;43.20;;;;;;4908488;29;20580;-78
2023/07/02 13:31:40;;;;;;;11.45;3.75;;;26.00;43.00;;;;;;4906220;29;20052;-78
2023/07/02 13:34:06;;;;;;;10.90;4.18;;;25.90;42.70;;;;;;4898327;29;20040;-78
2023/07/02 13:36:31;;;;;;;10.20;3.92;;;25.70;43.40;;;;;;4900358;29;20029;-78
2023/07/02 13:38:58;;;;;;;11.48;3.80;;;25.40;43.60;;;;;;4900342;29;20035;-78
2023/07/02 13:41:23;;;;;;;11.32;3.92;;;25.30;43.80;;;;;;4900105;29;20103;-78
2023/07/02 13:43:49;;;;;;;11.55;3.92;;;25.10;44.50;;;;;;4901328;29;20072;-78
2023/07/02 13:46:15;;;;;;;10.48;3.40;;;25.00;44.10;;;;;;4902136;29;20024;-78
2023/07/02 13:48:40;;;;;;;10.23;3.83;;;24.70;45.00;;;;;;4908088;29;20048;-78
2023/07/02 13:51:07;;;;;;;9.77;3.35;;;24.60;45.10;;;;;;4900125;29;20487;-78
2023/07/02 13:53:33;;;;;;;9.70;3.67;;;24.50;45.30;;;;;;4883097;29;20036;-78
2023/07/02 13:55:59;;;;;;;12.35;3.42;;;24.50;45.50;;;;;;4900465;29;20040;-78
2023/07/02 13:58:25;;;;;;;12.75;3.70;;;24.50;45.50;;;;;;4900004;29;20028;-78
2023/07/02 14:00:50;;;;;;;8.25;3.30;;;24.60;45.20;;;;;;4899942;29;20052;-78
2023/07/02 14:03:16;;;;;;;9.23;3.60;;;24.60;45.80;;;;;;4913394;29;21115;-78
2023/07/02 14:05:42;;;;;;;10.60;3.75;;;24.60;44.60;;;;;;4904056;29;20032;-79
2023/07/02 14:08:09;;;;;;;8.43;3.78;;;24.70;45.00;;;;;;4919115;29;20040;-78
2023/07/02 14:10:35;;;;;;;7.57;3.50;;;24.70;46.20;;;;;;4916562;29;20036;-78
2023/07/02 14:13:00;;;;;;;9.88;3.67;;;24.70;45.80;;;;;;4921367;29;20074;-78
2023/07/02 14:15:27;;;;;;;11.90;4.03;;;24.60;45.90;;;;;;4904037;29;20029;-78
2023/07/02 14:17:54;;;;;;;9.48;4.25;;;24.60;45.70;;;;;;4886687;29;20043;-78
2023/07/02 14:20:20;;;;;;;11.93;3.85;;;24.60;46.10;;;;;;4889301;29;20040;-78
2023/07/02 14:22:46;;;;;;;11.00;3.78;;;24.50;46.20;;;;;;4903790;29;20029;-78
2023/07/02 14:25:11;;;;;;;12.27;4.28;;;24.40;44.90;;;;;;4903539;29;20116;-78
2023/07/02 14:27:37;;;;;;;11.45;3.65;;;24.40;45.60;;;;;;4903527;29;20032;-78
2023/07/02 14:30:07;;;;;;;9.10;3.58;;;24.40;46.60;;;;;;4903559;29;20025;-78
2023/07/02 14:32:35;;;;;;;12.70;3.78;;;24.40;46.20;;;;;;4916748;29;20063;-78
2023/07/02 14:35:03;;;;;;;12.63;4.05;;;24.30;46.40;;;;;;4897992;29;20037;-78
2023/07/02 14:37:28;;;;;;;10.32;3.88;;;24.10;46.30;;;;;;4909200;29;20178;-78
2023/07/02 14:39:54;;;;;;;10.88;3.97;;;24.00;46.60;;;;;;4906285;29;20052;-82
2023/07/02 14:42:20;;;;;;;11.82;3.67;;;23.90;46.90;;;;;;4899988;29;20039;-77
2023/07/02 14:44:45;;;;;;;13.68;4.07;;;23.90;47.30;;;;;;4918957;29;20028;-78
2023/07/02 14:47:11;;;;;;;11.32;3.80;;;24.00;47.10;;;;;;4903657;29;20028;-79
2023/07/02 14:49:37;;;;;;;12.18;4.25;;;23.90;47.40;;;;;;4913830;29;20036;-82
2023/07/02 14:52:03;;;;;;;9.88;3.90;;;23.90;47.30;;;;;;4922002;29;20152;-80
2023/07/02 14:54:29;;;;;;;9.98;3.83;;;23.90;48.10;;;;;;4914492;29;20041;-81
2023/07/02 14:56:55;;;;;;;11.18;3.88;;;23.80;48.80;;;;;;4917242;29;20048;-82
2023/07/02 14:59:21;;;;;;;9.23;3.85;;;23.80;48.60;;;;;;4921301;29;20056;-81
2023/07/02 15:01:47;;;;;;;9.82;3.55;;;23.80;48.30;;;;;;4919028;29;20028;-83
2023/07/02 15:04:12;;;;;;;12.27;3.88;;;23.80;48.70;;;;;;4903030;29;20028;-82
2023/07/02 15:06:38;;;;;;;11.88;4.25;;;23.70;48.50;;;;;;4912164;29;20039;-85
2023/07/02 15:09:04;;;;;;;10.85;4.05;;;23.60;49.20;;;;;;4908241;29;20099;-85
2023/07/02 15:11:32;;;;;;;9.90;3.83;;;23.70;49.30;;;;;;4905174;29;20044;-83
2023/07/02 15:13:59;;;;;;;10.77;3.63;;;23.60;48.80;;;;;;4910783;29;20040;-83
2023/07/02 15:16:24;;;;;;;10.13;3.53;;;23.60;49.20;;;;;;4905333;29;20024;-82
2023/07/02 15:18:50;;;;;;;11.88;4.07;;;23.60;49.00;;;;;;4906899;29;20032;-82
2023/07/02 15:21:17;;;;;;;9.85;3.78;;;23.70;49.80;;;;;;4903214;29;20042;-84
2023/07/02 15:23:43;;;;;;;14.15;3.78;;;23.80;49.60;;;;;;4900615;29;20109;-81
2023/07/02 15:26:09;;;;;;;12.00;4.85;;;23.80;49.30;;;;;;4907696;29;20036;-80
2023/07/02 15:28:35;;;;;;;12.15;3.88;;;23.80;48.50;;;;;;4902705;29;20032;-82
2023/07/02 15:31:07;;;;;;;12.02;3.67;;;23.70;49.20;;;;;;4909439;29;20056;-81
2023/07/02 15:33:33;;;;;;;11.32;4.15;;;23.70;49.00;;;;;;4915948;29;20028;-79
2023/07/02 15:36:21;;;;;;;13.10;4.75;;;23.70;48.40;;;;;;4896142;29;20034;-84
2023/07/02 15:38:47;;;;;;;9.95;3.90;;;23.90;48.80;;;;;;4892215;29;20024;-88
2023/07/02 15:41:15;;;;;;;12.77;3.80;;;24.20;48.60;;;;;;4897794;29;20031;-81
2023/07/02 15:43:43;;;;;;;10.23;3.83;;;24.40;48.20;;;;;;4891000;29;20371;-85
2023/07/02 15:46:10;;;;;;;10.15;3.75;;;24.40;47.60;;;;;;4916360;29;20060;-84
2023/07/02 15:48:36;;;;;;;9.10;3.53;;;24.40;47.70;;;;;;4918420;29;20426;-80
2023/07/02 15:51:04;;;;;;;13.70;4.72;;;24.40;47.70;;;;;;4896489;29;20143;-80
2023/07/02 15:53:31;;;;;;;12.57;3.78;;;24.40;47.50;;;;;;4909491;29;20051;-84
2023/07/02 15:55:58;;;;;;;10.70;3.65;;;24.30;46.80;;;;;;4915194;29;20486;-83
2023/07/02 15:58:24;;;;;;;10.73;3.75;;;24.20;47.70;;;;;;4896590;29;20020;-78
2023/07/02 16:00:51;;;;;;;10.23;4.20;;;24.30;48.60;;;;;;4898050;29;20040;-78
2023/07/02 16:03:16;;;;;;;11.85;4.18;;;24.10;48.10;;;;;;4894103;29;20032;-81
2023/07/02 16:05:42;;;;;;;12.25;3.67;;;24.00;48.50;;;;;;4905692;29;20410;-77
2023/07/02 16:08:08;;;;;;;12.57;4.00;;;24.00;49.10;;;;;;4921471;29;20471;-82
2023/07/02 16:10:33;;;;;;;10.18;3.95;;;24.10;49.30;;;;;;4916513;29;20032;-82
2023/07/02 16:12:59;;;;;;;13.23;4.43;;;24.20;48.80;;;;;;4905359;29;20495;-80
2023/07/02 16:15:25;;;;;;;10.55;3.95;;;24.10;48.80;;;;;;4918944;29;20024;-79
2023/07/02 16:17:52;;;;;;;9.43;3.97;;;24.00;49.70;;;;;;4909237;29;20037;-83
2023/07/02 16:20:18;;;;;;;11.48;4.20;;;23.90;49.20;;;;;;4916959;29;21689;-87
2023/07/02 16:22:44;;;;;;;13.13;4.43;;;23.90;49.30;;;;;;4900729;29;20036;-91
2023/07/02 16:25:26;;;;;;;14.65;3.90;;;24.00;50.00;;;;;;4888348;29;20032;-88
2023/07/02 16:27:51;;;;;;;13.82;4.45;;;24.10;49.80;;;;;;4888094;29;20035;-83
2023/07/02 16:30:17;;;;;;;14.05;3.88;;;24.10;49.10;;;;;;4892583;29;20032;-85
2023/07/02 16:32:42;;;;;;;13.10;4.40;;;24.10;49.30;;;;;;4920151;29;20514;-84
2023/07/02 16:35:08;;;;;;;9.20;3.58;;;24.10;49.40;;;;;;4912826;29;20459;-87
2023/07/02 16:37:34;;;;;;;10.98;3.92;;;24.00;49.60;;;;;;4896056;29;20415;-90
2023/07/02 16:40:01;;;;;;;7.47;3.58;;;24.00;49.40;;;;;;4916595;29;20087;-85
2023/07/02 16:42:26;;;;;;;11.85;3.83;;;23.90;49.60;;;;;;4903884;29;20051;-86
2023/07/02 16:44:52;;;;;;;9.73;4.00;;;23.80;49.80;;;;;;4918662;29;20068;-92
2023/07/02 16:47:18;;;;;;;8.77;3.58;;;23.80;50.70;;;;;;4900488;29;20611;-87
2023/07/02 16:49:46;;;;;;;10.20;3.92;;;23.60;50.40;;;;;;4902241;29;20055;-87
2023/07/02 16:52:12;;;;;;;10.55;3.85;;;23.50;50.90;;;;;;4918489;29;20494;-87
2023/07/02 16:54:38;;;;;;;12.20;3.97;;;23.40;50.90;;;;;;4901380;29;20036;-89
2023/07/02 16:57:05;;;;;;;9.32;3.75;;;23.40;51.40;;;;;;4899384;29;20036;-85
2023/07/02 16:59:37;;;;;;;9.38;3.30;;;23.50;51.20;;;;;;4901786;29;20035;-83
2023/07/02 17:02:06;;;;;;;12.75;3.97;;;23.60;50.80;;;;;;4897491;29;20024;-84
2023/07/02 17:04:32;;;;;;;10.32;3.83;;;23.50;50.70;;;;;;4892113;29;20095;-84
2023/07/02 17:06:59;;;;;;;12.38;3.70;;;23.50;51.00;;;;;;4905843;29;20570;-88